Time;durP1;ratioP1;P1;durP2;ratioP2;P2;SDS_P1;SDS_P2;PMS_P1;PMS_P2;Temp;Humidity;BMP_temperature;BMP_pressure;BME280_temperature;BME280_humidity;BME280_pressure;Samples;Min_cycle;Max_cycle;Signal;HPM_P1;HPM_P2
2023/12/10 00:02:14;;;;;;;40.78;5.82;;;16.80;77.50;;;;;;10543645;27;20059;-53
2023/12/10 00:07:16;;;;;;;51.50;7.00;;;16.80;77.60;;;;;;10541216;27;20054;-55
2023/12/10 00:12:20;;;;;;;54.60;6.80;;;16.90;77.50;;;;;;10534077;28;20929;-54
2023/12/10 00:17:23;;;;;;;36.55;7.50;;;16.80;77.30;;;;;;10533675;28;20045;-50
2023/12/10 00:22:24;;;;;;;;;;;16.80;77.30;;;;;;10540477;28;20129;-54
2023/12/10 00:27:28;;;;;;;34.08;5.85;;;16.80;77.30;;;;;;10535939;28;19985;-53
2023/12/10 00:32:30;;;;;;;34.88;5.88;;;16.80;77.20;;;;;;10548066;27;20067;-54
2023/12/10 00:37:32;;;;;;;49.90;6.03;;;16.80;77.20;;;;;;10554180;27;20050;-53
2023/12/10 00:42:35;;;;;;;25.70;5.22;;;16.80;77.00;;;;;;10548545;27;23082;-55
2023/12/10 00:47:37;;;;;;;37.13;5.95;;;16.70;76.90;;;;;;10550889;27;20616;-54
2023/12/10 00:52:39;;;;;;;28.53;4.57;;;16.70;77.20;;;;;;10544922;27;20067;-56
2023/12/10 00:57:43;;;;;;;36.10;6.13;;;16.80;76.60;;;;;;10548720;27;20047;-55
2023/12/10 01:02:45;;;;;;;31.42;5.25;;;16.80;76.40;;;;;;10542994;27;20047;-55
2023/12/10 01:07:47;;;;;;;39.67;8.43;;;16.80;76.50;;;;;;10540235;27;20047;-51
2023/12/10 01:12:50;;;;;;;35.30;6.75;;;16.80;76.40;;;;;;10553096;27;20063;-53
2023/12/10 01:17:52;;;;;;;38.22;5.68;;;16.80;75.90;;;;;;10553240;27;20097;-50
2023/12/10 01:22:54;;;;;;;44.88;9.45;;;16.70;76.10;;;;;;10542243;27;20055;-55
2023/12/10 01:27:58;;;;;;;34.55;5.43;;;16.70;76.10;;;;;;10544074;27;20422;-51
2023/12/10 01:33:00;;;;;;;44.22;7.70;;;16.70;75.90;;;;;;10540726;27;20174;-54
2023/12/10 01:38:02;;;;;;;43.63;6.97;;;16.60;76.00;;;;;;10548665;27;20837;-56
2023/12/10 01:43:11;;;;;;;41.30;5.82;;;16.40;76.50;;;;;;10544882;27;20143;-53
2023/12/10 01:48:13;;;;;;;44.10;10.25;;;16.40;76.50;;;;;;10549459;27;20097;-53
2023/12/10 01:53:16;;;;;;;47.30;9.63;;;16.50;76.40;;;;;;10545272;27;20050;-56
2023/12/10 01:58:20;;;;;;;38.10;6.68;;;16.40;76.20;;;;;;10548729;27;20537;-54
2023/12/10 02:03:22;;;;;;;42.17;6.95;;;16.40;76.30;;;;;;10546661;27;20055;-56
2023/12/10 02:08:24;;;;;;;37.27;7.87;;;16.40;76.10;;;;;;10552626;27;20068;-56
2023/12/10 02:13:28;;;;;;;57.05;11.07;;;16.40;76.30;;;;;;10542606;27;20052;-55
2023/12/10 02:18:30;;;;;;;48.92;7.07;;;16.40;76.70;;;;;;10544090;27;20063;-56
2023/12/10 02:23:43;;;;;;;61.70;11.70;;;16.30;76.70;;;;;;10548983;27;20039;-57
2023/12/10 02:28:46;;;;;;;43.65;8.50;;;16.20;76.90;;;;;;10541810;27;20052;-53
2023/12/10 02:33:49;;;;;;;53.40;8.57;;;16.10;76.90;;;;;;10540986;27;20062;-51
2023/12/10 02:38:52;;;;;;;49.40;7.37;;;16.20;76.40;;;;;;10545797;27;20050;-50
2023/12/10 02:43:56;;;;;;;53.42;8.95;;;16.10;77.10;;;;;;10545300;27;20662;-52
2023/12/10 02:48:58;;;;;;;46.50;7.78;;;16.20;76.90;;;;;;10539257;27;20602;-54
2023/12/10 02:54:00;;;;;;;43.08;7.47;;;16.10;76.60;;;;;;10541359;27;20047;-55
2023/12/10 02:59:03;;;;;;;54.65;9.20;;;16.10;76.90;;;;;;10538751;27;20067;-52
2023/12/10 03:04:05;;;;;;;46.50;9.05;;;16.10;77.00;;;;;;10540117;27;20078;-55
2023/12/10 03:09:08;;;;;;;40.58;5.93;;;16.00;77.00;;;;;;10543195;27;20047;-55
2023/12/10 03:14:12;;;;;;;54.55;8.98;;;16.00;77.10;;;;;;10543157;27;20062;-53
2023/12/10 03:19:14;;;;;;;52.67;10.43;;;16.00;77.10;;;;;;10543736;27;20040;-52
2023/12/10 03:24:16;;;;;;;52.38;10.32;;;16.00;77.10;;;;;;10542661;27;20426;-52
2023/12/10 03:29:19;;;;;;;43.80;9.48;;;16.00;77.10;;;;;;10543238;27;20051;-52
2023/12/10 03:34:21;;;;;;;52.70;11.05;;;16.00;77.00;;;;;;10536699;27;20062;-53
2023/12/10 03:39:23;;;;;;;42.88;9.32;;;15.90;77.40;;;;;;10537260;27;20047;-53
2023/12/10 03:44:26;;;;;;;48.00;6.63;;;15.90;77.60;;;;;;10543696;27;20043;-52
2023/12/10 03:49:29;;;;;;;34.25;6.22;;;15.90;77.60;;;;;;10540694;27;20086;-52
2023/12/10 03:54:31;;;;;;;41.00;6.35;;;15.90;77.30;;;;;;10544529;27;20056;-50
2023/12/10 04:15:32;;;;;;;43.38;6.90;;;16.10;76.40;;;;;;10495239;27;20633;-51
2023/12/10 04:20:34;;;;;;;38.88;6.80;;;16.00;77.20;;;;;;10506394;28;20704;-52
2023/12/10 04:25:36;;;;;;;36.53;6.97;;;16.00;77.70;;;;;;10514777;28;20139;-50
2023/12/10 04:30:39;;;;;;;35.83;5.45;;;16.00;77.60;;;;;;10514063;28;20124;-53
2023/12/10 04:35:42;;;;;;;45.80;8.43;;;16.00;77.50;;;;;;10515649;28;20056;-49
2023/12/10 04:40:44;;;;;;;48.15;9.20;;;16.00;77.60;;;;;;10510241;28;20050;-50
2023/12/10 04:45:48;;;;;;;47.28;7.95;;;16.00;77.60;;;;;;10511824;28;20089;-49
2023/12/10 04:50:50;;;;;;;49.10;9.90;;;16.00;77.40;;;;;;10509350;28;20406;-52
2023/12/10 04:55:52;;;;;;;53.23;9.80;;;15.90;77.70;;;;;;10510757;28;20052;-49
2023/12/10 05:00:56;;;;;;;40.10;7.73;;;16.00;77.80;;;;;;10511259;28;20052;-50
2023/12/10 05:05:58;;;;;;;57.97;10.02;;;16.00;77.70;;;;;;10512866;28;20415;-51
2023/12/10 05:11:00;;;;;;;27.48;5.22;;;16.00;77.80;;;;;;10515654;28;20495;-53
2023/12/10 05:16:04;;;;;;;46.58;8.27;;;15.90;77.80;;;;;;10505235;28;20396;-50
2023/12/10 05:21:07;;;;;;;45.03;7.47;;;15.90;77.90;;;;;;10513268;28;20461;-53
2023/12/10 05:26:09;;;;;;;44.67;8.82;;;15.90;78.00;;;;;;10489346;28;20063;-51
2023/12/10 05:31:12;;;;;;;41.10;7.93;;;15.80;78.00;;;;;;10482322;28;22685;-51
2023/12/10 05:36:14;;;;;;;51.05;7.82;;;15.80;77.50;;;;;;10480876;28;20063;-53
2023/12/10 05:41:16;;;;;;;24.02;4.53;;;15.80;77.70;;;;;;10481935;28;20040;-49
2023/12/10 05:46:20;;;;;;;31.13;5.25;;;15.80;78.00;;;;;;10481314;28;20451;-50
2023/12/10 05:51:22;;;;;;;54.65;8.23;;;15.90;77.80;;;;;;10481129;28;20041;-51
2023/12/10 05:56:24;;;;;;;36.05;6.70;;;15.90;77.20;;;;;;10484416;28;20127;-52
2023/12/10 06:01:27;;;;;;;41.22;5.68;;;16.00;77.50;;;;;;10474854;28;23070;-47
2023/12/10 06:06:29;;;;;;;51.35;10.65;;;16.00;76.90;;;;;;10482783;28;20866;-49
2023/12/10 06:11:32;;;;;;;37.25;6.97;;;16.10;77.10;;;;;;10481162;28;20496;-49
2023/12/10 06:16:35;;;;;;;34.13;5.72;;;16.10;76.90;;;;;;10479469;28;20052;-47
2023/12/10 06:21:37;;;;;;;39.10;8.50;;;16.10;76.80;;;;;;10477899;28;20101;-46
2023/12/10 06:26:41;;;;;;;36.75;6.63;;;16.10;76.90;;;;;;10480659;28;20400;-45
2023/12/10 06:31:44;;;;;;;41.38;6.70;;;16.20;76.90;;;;;;10468643;28;20071;-47
2023/12/10 06:36:46;;;;;;;41.58;5.70;;;16.20;76.70;;;;;;10481756;28;20052;-48
2023/12/10 06:41:48;;;;;;;39.70;7.88;;;16.30;76.70;;;;;;10483838;28;20206;-46
2023/12/10 06:46:52;;;;;;;47.05;6.40;;;16.30;76.10;;;;;;10480998;28;20056;-48
2023/12/10 06:51:54;;;;;;;27.48;4.60;;;16.40;76.20;;;;;;10482778;28;20052;-52
2023/12/10 06:56:56;;;;;;;39.87;4.60;;;16.30;76.50;;;;;;10481288;28;20059;-52
2023/12/10 07:01:59;;;;;;;38.13;4.82;;;16.40;76.30;;;;;;10487242;28;20051;-47
2023/12/10 07:07:01;;;;;;;29.73;5.72;;;16.40;76.30;;;;;;10476305;28;20067;-48
2023/12/10 07:12:04;;;;;;;29.00;4.68;;;16.40;76.20;;;;;;10477836;28;20056;-45
2023/12/10 07:17:07;;;;;;;42.57;5.97;;;16.40;76.40;;;;;;10475950;28;20600;-46
2023/12/10 07:22:09;;;;;;;39.13;5.95;;;16.50;76.00;;;;;;10476135;28;20565;-45
2023/12/10 07:27:11;;;;;;;12.05;3.05;;;16.50;76.10;;;;;;10459995;28;20893;-46
2023/12/10 07:32:14;;;;;;;13.88;3.08;;;16.70;75.80;;;;;;10470666;28;20052;-51
2023/12/10 07:37:17;;;;;;;9.80;2.38;;;16.70;75.40;;;;;;10468134;28;20633;-51
2023/12/10 07:42:19;;;;;;;12.07;2.77;;;16.80;74.70;;;;;;10469683;28;20082;-51
2023/12/10 07:47:22;;;;;;;14.53;2.63;;;16.80;74.80;;;;;;10473807;28;20051;-53
2023/12/10 07:52:24;;;;;;;13.27;3.00;;;16.80;74.90;;;;;;10469925;28;20041;-53
2023/12/10 07:57:26;;;;;;;15.50;2.90;;;16.80;74.70;;;;;;10464832;28;20056;-50
2023/12/10 08:02:30;;;;;;;19.02;2.92;;;16.90;74.80;;;;;;10467457;28;20040;-49
2023/12/10 08:07:32;;;;;;;18.00;3.33;;;16.90;74.60;;;;;;10465411;28;20055;-49
2023/12/10 08:12:34;;;;;;;13.50;2.55;;;16.80;74.70;;;;;;10474673;28;20155;-49
2023/12/10 08:17:37;;;;;;;12.90;2.97;;;16.80;74.50;;;;;;10469244;28;20435;-51
2023/12/10 08:22:40;;;;;;;18.23;3.28;;;16.90;74.60;;;;;;10464165;28;20044;-50
2023/12/10 08:27:42;;;;;;;12.40;2.97;;;16.90;74.40;;;;;;10462210;28;20087;-50
2023/12/10 08:32:45;;;;;;;10.88;2.40;;;17.00;74.20;;;;;;10471751;28;20416;-49
2023/12/10 08:37:49;;;;;;;15.85;2.88;;;17.00;74.30;;;;;;10468830;28;20297;-51
2023/12/10 08:42:51;;;;;;;9.70;2.15;;;17.00;74.50;;;;;;10470173;28;20596;-53
2023/12/10 08:47:54;;;;;;;12.97;3.10;;;17.00;74.20;;;;;;10464915;28;20052;-50
2023/12/10 08:52:56;;;;;;;9.32;2.70;;;17.00;74.40;;;;;;10469879;28;20449;-50
2023/12/10 08:57:58;;;;;;;17.70;3.10;;;17.10;74.30;;;;;;10465655;28;20053;-50
2023/12/10 09:03:02;;;;;;;19.23;2.80;;;17.20;74.30;;;;;;10474558;28;20060;-46
2023/12/10 09:08:05;;;;;;;13.88;3.15;;;17.20;74.30;;;;;;10475456;28;20048;-50
2023/12/10 09:13:07;;;;;;;15.43;2.63;;;17.20;74.20;;;;;;10480671;28;20071;-52
2023/12/10 09:18:10;;;;;;;14.55;2.67;;;17.20;74.10;;;;;;10482276;28;20085;-50
2023/12/10 09:23:12;;;;;;;17.48;2.63;;;17.30;74.30;;;;;;10476653;28;20387;-52
2023/12/10 09:28:14;;;;;;;11.87;2.70;;;17.30;74.40;;;;;;10488827;28;20052;-54
2023/12/10 09:33:18;;;;;;;9.32;2.30;;;17.40;74.10;;;;;;10482912;28;20482;-50
2023/12/10 09:38:20;;;;;;;10.18;2.58;;;17.40;73.90;;;;;;10476937;28;20056;-49
2023/12/10 09:43:23;;;;;;;12.00;2.90;;;17.50;74.00;;;;;;10476513;28;20048;-49
2023/12/10 09:48:26;;;;;;;14.40;2.65;;;17.50;74.00;;;;;;10482808;28;20044;-49
2023/12/10 09:53:29;;;;;;;12.27;2.88;;;17.50;73.80;;;;;;10475336;28;20045;-47
2023/12/10 09:58:31;;;;;;;;;;;17.50;73.70;;;;;;10478149;28;20249;-53
2023/12/10 10:03:37;;;;;;;9.93;1.88;;;17.60;73.70;;;;;;10473017;28;20671;-52
2023/12/10 10:08:39;;;;;;;11.25;2.38;;;17.60;73.50;;;;;;10477686;28;20091;-54
2023/12/10 10:13:52;;;;;;;8.25;1.83;;;17.60;73.40;;;;;;10450900;28;20049;-50
2023/12/10 10:18:55;;;;;;;;;;;17.70;73.70;;;;;;10473767;28;20239;-52
2023/12/10 10:23:57;;;;;;;13.18;1.80;;;17.90;73.80;;;;;;10470883;28;19935;-52
2023/12/10 10:28:59;;;;;;;;;;;18.00;73.40;;;;;;10461018;28;20061;-56
2023/12/10 10:34:04;;;;;;;6.40;1.63;;;18.20;73.80;;;;;;10470577;28;19928;-50
2023/12/10 10:39:07;;;;;;;13.18;2.60;;;18.20;74.40;;;;;;10459781;28;20049;-50
2023/12/10 10:44:09;;;;;;;13.52;2.15;;;18.20;73.50;;;;;;10466220;28;20139;-53
2023/12/10 10:49:14;;;;;;;14.52;2.95;;;18.20;73.40;;;;;;10478213;28;20106;-49
2023/12/10 10:54:16;;;;;;;8.60;1.90;;;18.30;73.70;;;;;;10476179;28;20579;-53
2023/12/10 10:59:31;;;;;;;6.53;1.50;;;18.40;73.90;;;;;;10475024;28;20098;-52
2023/12/10 11:04:36;;;;;;;6.97;2.05;;;18.40;73.80;;;;;;10466985;28;20040;-51
2023/12/10 11:09:56;;;;;;;18.48;3.45;;;18.50;73.50;;;;;;10465883;28;20060;-51
2023/12/10 11:14:58;;;;;;;8.32;2.45;;;18.50;72.80;;;;;;10465076;28;20570;-52
2023/12/10 11:20:03;;;;;;;15.63;2.63;;;18.50;72.60;;;;;;10470521;28;20048;-51
2023/12/10 11:25:05;;;;;;;11.13;2.25;;;18.50;72.60;;;;;;10465166;28;20179;-50
2023/12/10 11:30:08;;;;;;;11.63;2.08;;;18.50;72.50;;;;;;10465521;28;20672;-50
2023/12/10 11:35:14;;;;;;;9.63;2.28;;;18.50;72.90;;;;;;10463581;28;20791;-51
2023/12/10 11:40:16;;;;;;;11.45;2.50;;;18.60;73.00;;;;;;10474358;28;20101;-50
2023/12/10 11:45:19;;;;;;;15.02;3.75;;;18.60;72.80;;;;;;10464740;28;20530;-52
2023/12/10 11:50:22;;;;;;;;;;;18.70;72.80;;;;;;10461888;28;20056;-51
2023/12/10 11:55:24;;;;;;;7.75;2.17;;;18.60;72.90;;;;;;10464081;28;19928;-51
2023/12/10 12:00:27;;;;;;;7.35;1.80;;;18.80;72.90;;;;;;10462246;28;20055;-50
2023/12/10 12:05:30;;;;;;;11.05;2.47;;;18.70;73.10;;;;;;10463619;28;20062;-54
2023/12/10 12:10:38;;;;;;;8.70;2.20;;;18.70;73.10;;;;;;10483213;28;20040;-52
2023/12/10 12:15:45;;;;;;;15.82;3.05;;;18.80;72.90;;;;;;10474354;28;20182;-50
2023/12/10 12:20:48;;;;;;;16.60;3.35;;;18.80;73.00;;;;;;10462479;28;20055;-50
2023/12/10 12:25:50;;;;;;;10.63;2.13;;;18.80;72.90;;;;;;10472935;28;20060;-53
2023/12/10 12:30:53;;;;;;;16.52;2.80;;;18.80;73.20;;;;;;10462662;28;20063;-50
2023/12/10 12:35:56;;;;;;;15.65;2.97;;;18.80;73.30;;;;;;10473266;28;20059;-49
2023/12/10 12:40:58;;;;;;;16.02;2.95;;;18.90;73.40;;;;;;10482136;28;20052;-53
2023/12/10 12:46:00;;;;;;;15.40;3.28;;;18.80;73.50;;;;;;10482653;28;20435;-55
2023/12/10 12:51:04;;;;;;;14.77;3.42;;;18.90;73.70;;;;;;10473464;28;20048;-53
2023/12/10 12:56:07;;;;;;;13.70;3.13;;;18.90;73.80;;;;;;10468385;28;20041;-52
2023/12/10 13:01:09;;;;;;;12.15;3.40;;;18.90;74.00;;;;;;10467050;28;20856;-53
2023/12/10 13:06:12;;;;;;;13.73;2.85;;;18.80;74.40;;;;;;10475866;28;20052;-50
2023/12/10 13:11:14;;;;;;;15.77;3.50;;;18.90;74.40;;;;;;10479840;28;20053;-52
2023/12/10 13:16:16;;;;;;;14.90;3.85;;;18.90;74.30;;;;;;10468468;28;20419;-52
2023/12/10 13:21:20;;;;;;;19.27;3.55;;;19.00;74.30;;;;;;10478780;28;20060;-50
2023/12/10 13:26:22;;;;;;;16.45;3.22;;;19.00;74.30;;;;;;10476796;28;20051;-51
2023/12/10 13:31:25;;;;;;;;;;;19.00;74.20;;;;;;10472226;28;20121;-51
2023/12/10 13:36:29;;;;;;;14.77;3.25;;;19.00;74.20;;;;;;10466840;28;19950;-51
2023/12/10 13:41:31;;;;;;;13.00;3.33;;;19.10;74.10;;;;;;10480655;28;20055;-50
2023/12/10 13:46:33;;;;;;;13.13;3.22;;;19.10;74.20;;;;;;10472742;28;20092;-48
2023/12/10 13:51:36;;;;;;;12.55;3.63;;;19.10;74.20;;;;;;10473877;28;20194;-48
2023/12/10 13:56:39;;;;;;;14.00;3.55;;;19.10;74.40;;;;;;10477381;28;20053;-51
2023/12/10 14:01:41;;;;;;;10.65;3.08;;;19.10;74.40;;;;;;10476507;28;20060;-52
2023/12/10 14:06:44;;;;;;;11.38;3.50;;;19.10;74.40;;;;;;10475527;28;20044;-52
2023/12/10 14:11:46;;;;;;;16.00;3.47;;;19.20;74.50;;;;;;10475945;28;20056;-54
2023/12/10 14:16:48;;;;;;;15.00;3.67;;;19.20;74.20;;;;;;10473815;28;20500;-52
2023/12/10 14:21:51;;;;;;;14.70;4.18;;;19.20;74.20;;;;;;10470897;28;20056;-50
2023/12/10 14:26:53;;;;;;;16.10;2.97;;;19.30;74.50;;;;;;10476123;28;20055;-51
2023/12/10 14:31:56;;;;;;;14.52;3.00;;;19.30;74.40;;;;;;10478155;28;20055;-50
2023/12/10 14:36:59;;;;;;;14.30;2.78;;;19.20;74.20;;;;;;10476637;28;20053;-51
2023/12/10 14:42:01;;;;;;;14.77;3.50;;;19.20;74.40;;;;;;10473727;28;20059;-52
2023/12/10 14:47:03;;;;;;;16.15;3.38;;;19.20;74.80;;;;;;10477231;28;20040;-50
2023/12/10 14:52:07;;;;;;;15.23;3.10;;;19.30;74.60;;;;;;10481919;28;20058;-52
2023/12/10 14:57:10;;;;;;;14.23;3.35;;;19.30;74.50;;;;;;10481017;28;20049;-51
2023/12/10 15:02:12;;;;;;;11.48;2.83;;;19.30;74.50;;;;;;10475943;28;20637;-51
2023/12/10 15:07:15;;;;;;;12.70;2.72;;;19.30;74.40;;;;;;10475745;28;20048;-51
2023/12/10 15:12:17;;;;;;;9.40;2.70;;;19.30;74.20;;;;;;10475186;28;20757;-50
2023/12/10 15:17:20;;;;;;;11.10;2.92;;;19.30;74.30;;;;;;10470235;28;20431;-53
2023/12/10 15:22:24;;;;;;;10.15;2.40;;;19.30;74.30;;;;;;10477205;28;20048;-50
2023/12/10 15:27:27;;;;;;;9.02;2.17;;;19.20;74.60;;;;;;10469424;28;20047;-51
2023/12/10 15:32:29;;;;;;;9.75;2.78;;;19.20;74.70;;;;;;10470765;28;20060;-49
2023/12/10 15:37:33;;;;;;;9.48;2.67;;;19.10;74.70;;;;;;10474592;28;20044;-54
2023/12/10 15:42:35;;;;;;;7.22;2.08;;;19.00;74.70;;;;;;10471923;28;20070;-55
2023/12/10 15:47:38;;;;;;;10.32;3.17;;;19.10;74.80;;;;;;10474398;28;20067;-50
2023/12/10 15:52:41;;;;;;;9.48;2.38;;;19.00;74.80;;;;;;10478869;28;20465;-52
2023/12/10 15:57:44;;;;;;;12.10;2.80;;;19.00;74.80;;;;;;10477788;28;20053;-50
2023/12/10 16:02:46;;;;;;;9.10;2.25;;;19.00;74.70;;;;;;10468598;28;20677;-56
2023/12/10 16:07:50;;;;;;;7.00;2.30;;;19.00;74.80;;;;;;10469141;28;20131;-53
2023/12/10 16:12:52;;;;;;;8.88;2.45;;;19.10;74.70;;;;;;10466840;28;20053;-52
2023/12/10 16:17:56;;;;;;;8.20;2.38;;;19.00;75.30;;;;;;10463411;28;20047;-50
2023/12/10 16:23:00;;;;;;;8.23;2.95;;;19.10;75.70;;;;;;10463051;28;20162;-50
2023/12/10 16:28:03;;;;;;;10.43;3.00;;;19.00;75.40;;;;;;10468906;28;20818;-51
2023/12/10 16:33:06;;;;;;;10.80;3.75;;;19.00;75.50;;;;;;10470241;28;20048;-51
2023/12/10 16:38:10;;;;;;;9.75;3.75;;;19.00;75.70;;;;;;10467515;28;20059;-51
2023/12/10 16:43:12;;;;;;;11.60;3.40;;;19.10;76.40;;;;;;10469495;28;20083;-52
2023/12/10 16:48:14;;;;;;;12.25;4.20;;;19.10;75.80;;;;;;10471592;28;20842;-52
2023/12/10 16:53:18;;;;;;;10.57;4.18;;;19.00;75.80;;;;;;10468117;28;20060;-50
2023/12/10 16:58:21;;;;;;;10.77;4.43;;;19.00;76.10;;;;;;10472033;28;20065;-52
2023/12/10 17:03:22;;;;;;;;;;;19.00;76.10;;;;;;10478690;28;20491;-49
2023/12/10 17:08:26;;;;;;;10.48;4.78;;;19.00;76.00;;;;;;10473877;28;19924;-54
2023/12/10 17:13:28;;;;;;;11.38;4.97;;;19.00;75.90;;;;;;10471647;28;20456;-51
2023/12/10 17:18:30;;;;;;;13.32;5.55;;;19.00;76.00;;;;;;10464829;28;20055;-52
2023/12/10 17:23:34;;;;;;;9.20;4.00;;;19.00;76.00;;;;;;10465204;28;20161;-52
2023/12/10 17:28:36;;;;;;;12.80;3.97;;;19.10;75.90;;;;;;10471831;28;20052;-51
2023/12/10 17:33:38;;;;;;;8.90;4.32;;;19.20;76.00;;;;;;10459435;28;20055;-54
2023/12/10 17:38:41;;;;;;;14.40;4.70;;;19.10;76.00;;;;;;10482745;28;20062;-53
2023/12/10 17:43:43;;;;;;;10.65;4.85;;;19.20;76.10;;;;;;10474739;28;20060;-54
2023/12/10 17:48:47;;;;;;;;;;;19.20;75.80;;;;;;10484603;28;20147;-49
2023/12/10 17:53:50;;;;;;;18.17;8.32;;;19.10;75.70;;;;;;10475694;28;20052;-53
2023/12/10 17:58:53;;;;;;;15.80;7.53;;;18.90;75.60;;;;;;10477333;28;20057;-54
2023/12/10 18:03:56;;;;;;;17.08;7.63;;;18.70;75.90;;;;;;10473174;28;20052;-51
2023/12/10 18:08:59;;;;;;;13.77;6.32;;;18.60;76.10;;;;;;10473050;28;20059;-52
2023/12/10 18:14:01;;;;;;;10.75;4.93;;;18.60;76.20;;;;;;10478238;28;20072;-54
2023/12/10 18:19:04;;;;;;;7.30;3.55;;;18.60;76.20;;;;;;10481135;28;20052;-52
2023/12/10 18:24:07;;;;;;;6.60;3.80;;;18.60;76.40;;;;;;10468459;28;20159;-54
2023/12/10 18:29:09;;;;;;;8.40;3.38;;;18.60;76.40;;;;;;10472736;28;20559;-51
2023/12/10 18:34:11;;;;;;;8.43;3.10;;;18.60;76.70;;;;;;10475496;28;20051;-54
2023/12/10 18:39:15;;;;;;;7.05;2.83;;;18.50;77.00;;;;;;10481815;28;20527;-55
2023/12/10 18:44:17;;;;;;;7.63;3.08;;;18.50;77.10;;;;;;10472580;28;20052;-51
2023/12/10 18:49:19;;;;;;;6.40;2.80;;;18.50;77.10;;;;;;10479995;28;20397;-52
2023/12/10 18:54:22;;;;;;;8.00;2.67;;;18.50;77.40;;;;;;10471485;28;20052;-54
2023/12/10 18:59:24;;;;;;;11.95;3.97;;;18.50;77.20;;;;;;10474907;28;20052;-50
2023/12/10 19:04:26;;;;;;;11.45;3.63;;;18.60;77.10;;;;;;10465737;28;20201;-51
2023/12/10 19:09:30;;;;;;;11.93;3.60;;;18.60;77.20;;;;;;10476442;28;20052;-51
2023/12/10 19:14:32;;;;;;;10.18;3.65;;;18.70;77.40;;;;;;10476267;28;20167;-52
2023/12/10 19:19:34;;;;;;;14.32;3.88;;;18.60;77.40;;;;;;10473827;28;20064;-54
2023/12/10 19:24:37;;;;;;;12.75;3.50;;;18.50;77.50;;;;;;10469661;28;20409;-54
2023/12/10 19:29:41;;;;;;;11.27;3.58;;;18.50;77.60;;;;;;10472705;28;20056;-55
2023/12/10 19:34:43;;;;;;;18.52;4.95;;;18.50;77.70;;;;;;10476012;28;20192;-51
2023/12/10 19:39:46;;;;;;;;;;;18.50;77.50;;;;;;10476506;28;20090;-52
2023/12/10 19:44:49;;;;;;;14.20;3.65;;;18.50;77.60;;;;;;10485173;28;19931;-54
2023/12/10 19:49:51;;;;;;;15.23;3.60;;;18.40;77.60;;;;;;10483623;28;20427;-50
2023/12/10 19:54:54;;;;;;;15.73;3.88;;;18.40;77.50;;;;;;10473939;28;20052;-51
2023/12/10 19:59:56;;;;;;;8.88;3.33;;;18.30;77.30;;;;;;10473331;28;20053;-51
2023/12/10 20:04:58;;;;;;;9.25;3.45;;;18.40;77.40;;;;;;10474418;28;20044;-52
2023/12/10 20:10:01;;;;;;;12.45;3.55;;;18.40;77.30;;;;;;10471523;28;20048;-55
2023/12/10 20:15:05;;;;;;;12.50;3.42;;;18.40;77.30;;;;;;10462787;28;20057;-50
2023/12/10 20:20:08;;;;;;;14.75;4.38;;;18.40;77.10;;;;;;10477167;28;20051;-54
2023/12/10 20:25:12;;;;;;;19.83;4.00;;;18.40;76.90;;;;;;10490292;28;20043;-55
2023/12/10 20:30:15;;;;;;;14.77;4.38;;;18.30;76.70;;;;;;10476921;28;20166;-52
2023/12/10 20:35:17;;;;;;;10.52;3.40;;;18.40;76.70;;;;;;10478466;28;20145;-50
2023/12/10 20:40:20;;;;;;;17.08;3.60;;;18.50;76.70;;;;;;10461909;28;20044;-53
2023/12/10 20:45:22;;;;;;;14.73;3.80;;;18.50;76.50;;;;;;10462133;28;20051;-52
2023/12/10 20:50:24;;;;;;;15.10;3.22;;;18.40;76.30;;;;;;10459799;28;20734;-55
2023/12/10 20:55:27;;;;;;;15.70;3.65;;;18.30;76.90;;;;;;10466959;28;20068;-52
2023/12/10 21:00:33;;;;;;;14.52;4.07;;;18.40;76.20;;;;;;10469097;28;20060;-49
2023/12/10 21:05:37;;;;;;;19.40;4.90;;;18.40;76.10;;;;;;10467807;28;20136;-53
2023/12/10 21:10:40;;;;;;;22.05;5.70;;;18.40;75.80;;;;;;10469446;28;20799;-55
2023/12/10 21:15:42;;;;;;;18.35;6.43;;;18.20;75.90;;;;;;10474834;28;20044;-53
2023/12/10 21:20:44;;;;;;;20.15;5.07;;;18.30;75.80;;;;;;10466254;28;20901;-53
2023/12/10 21:25:48;;;;;;;21.50;5.32;;;18.30;75.70;;;;;;10470498;28;20556;-51
2023/12/10 21:30:50;;;;;;;23.17;5.15;;;18.30;75.50;;;;;;10471728;28;20428;-51
2023/12/10 21:35:52;;;;;;;17.45;4.82;;;18.30;75.40;;;;;;10468971;28;20039;-50
2023/12/10 21:40:56;;;;;;;13.95;3.95;;;18.30;75.40;;;;;;10472137;28;20075;-53
2023/12/10 21:45:58;;;;;;;21.45;4.25;;;18.40;75.40;;;;;;10466105;28;22482;-53
2023/12/10 21:51:00;;;;;;;20.30;4.55;;;18.30;75.30;;;;;;10479793;28;20048;-52
2023/12/10 21:56:04;;;;;;;16.25;4.45;;;18.40;75.20;;;;;;10473415;28;20059;-51
2023/12/10 22:01:06;;;;;;;16.60;4.30;;;18.30;75.50;;;;;;10483642;28;20054;-49
2023/12/10 22:06:08;;;;;;;23.30;5.28;;;18.30;75.80;;;;;;10485371;28;20040;-51
2023/12/10 22:11:13;;;;;;;20.88;5.13;;;18.30;75.80;;;;;;10479849;28;20057;-54
2023/12/10 22:16:15;;;;;;;24.08;5.07;;;18.30;75.90;;;;;;10480515;28;20047;-51
2023/12/10 22:21:18;;;;;;;20.40;4.97;;;18.30;76.10;;;;;;10472625;28;20052;-51
2023/12/10 22:26:22;;;;;;;24.33;4.90;;;18.20;76.20;;;;;;10476019;28;20080;-51
2023/12/10 22:31:24;;;;;;;21.95;5.97;;;18.20;76.20;;;;;;10476200;28;20052;-51
2023/12/10 22:36:26;;;;;;;25.80;5.47;;;18.10;76.30;;;;;;10478715;28;20040;-50
2023/12/10 22:41:29;;;;;;;26.42;6.32;;;18.20;76.20;;;;;;10478671;28;20059;-58
2023/12/10 22:46:31;;;;;;;22.10;4.88;;;18.00;76.30;;;;;;10459451;28;20130;-49
2023/12/10 22:51:33;;;;;;;29.30;5.63;;;18.00;76.40;;;;;;10475330;28;20067;-51
2023/12/10 22:56:37;;;;;;;24.42;5.47;;;18.00;76.50;;;;;;10478963;28;20049;-50
2023/12/10 23:01:40;;;;;;;29.08;4.90;;;18.00;76.50;;;;;;10476678;28;20350;-52
2023/12/10 23:06:42;;;;;;;20.58;5.60;;;17.90;76.50;;;;;;10476767;28;22471;-51
2023/12/10 23:11:45;;;;;;;21.63;4.78;;;18.00;76.50;;;;;;10474824;28;20067;-55
2023/12/10 23:16:47;;;;;;;22.83;5.32;;;17.90;76.50;;;;;;10479832;28;20048;-54
2023/12/10 23:21:49;;;;;;;27.83;5.13;;;17.90;76.60;;;;;;10481131;28;20062;-54
2023/12/10 23:26:53;;;;;;;24.33;5.90;;;17.90;76.90;;;;;;10478641;28;20047;-51
2023/12/10 23:31:55;;;;;;;21.98;4.97;;;17.90;76.90;;;;;;10473225;28;20052;-55
2023/12/10 23:36:57;;;;;;;27.05;5.75;;;17.90;76.80;;;;;;10481834;28;20068;-54
2023/12/10 23:42:00;;;;;;;24.45;5.65;;;17.80;76.90;;;;;;10474695;28;20063;-55
2023/12/10 23:47:02;;;;;;;18.10;4.43;;;17.80;76.90;;;;;;10481400;28;20055;-52
2023/12/10 23:52:05;;;;;;;30.15;5.80;;;17.80;77.00;;;;;;10477990;28;20052;-55
2023/12/10 23:57:08;;;;;;;26.10;4.97;;;17.80;76.90;;;;;;10474915;28;20406;-54
